createdAt,value
2019-02-04T00:00:43.817Z,-1.93
2019-02-04T00:04:49.805Z,-2.06
2019-02-04T00:08:55.611Z,-2.16
2019-02-04T00:13:01.420Z,-2.23
2019-02-04T00:17:06.877Z,-2.35
2019-02-04T00:21:12.370Z,-2.31
2019-02-04T00:25:17.808Z,-2.40
2019-02-04T00:29:23.228Z,-2.52
2019-02-04T00:33:29.014Z,-2.51
2019-02-04T00:37:34.800Z,-2.59
2019-02-04T00:41:40.220Z,-2.44
2019-02-04T00:45:45.572Z,-2.40
2019-02-04T00:49:51.001Z,-2.61
2019-02-04T00:53:56.444Z,-2.76
2019-02-04T00:58:02.165Z,-2.79
2019-02-04T01:02:08.415Z,-2.78
2019-02-04T01:06:14.017Z,-2.92
2019-02-04T01:10:22.869Z,-2.80
2019-02-04T01:14:28.335Z,-2.98
2019-02-04T01:18:33.815Z,-2.91
2019-02-04T01:22:39.392Z,-2.85
2019-02-04T01:26:45.200Z,-2.92
2019-02-04T01:30:51.291Z,-3.10
2019-02-04T01:34:56.647Z,-3.15
2019-02-04T01:39:01.973Z,-2.96
2019-02-04T01:43:07.392Z,-2.92
2019-02-04T01:47:14.647Z,-2.91
2019-02-04T01:51:20.043Z,-2.94
2019-02-04T01:55:25.832Z,-2.85
2019-02-04T01:59:31.161Z,-2.71
2019-02-04T02:03:36.908Z,-2.88
2019-02-04T02:07:42.329Z,-2.60
2019-02-04T02:11:48.196Z,-2.88
2019-02-04T02:15:53.614Z,-3.03
2019-02-04T02:19:59.435Z,-3.17
2019-02-04T02:24:04.861Z,-3.11
2019-02-04T02:28:10.311Z,-3.32
2019-02-04T02:32:15.642Z,-3.21
2019-02-04T02:36:21.092Z,-3.15
2019-02-04T02:40:32.830Z,-3.18
2019-02-04T02:44:38.568Z,-3.28
2019-02-04T02:48:44.171Z,-3.17
2019-02-04T02:52:49.532Z,-3.18
2019-02-04T02:56:54.794Z,-3.22
2019-02-04T03:01:00.493Z,-3.21
2019-02-04T03:05:08.535Z,-3.24
2019-02-04T03:09:13.946Z,-3.31
2019-02-04T03:13:19.511Z,-3.32
2019-02-04T03:17:24.840Z,-3.40
2019-02-04T03:21:30.291Z,-3.37
2019-02-04T03:25:35.845Z,-3.21
2019-02-04T03:29:41.325Z,-3.39
2019-02-04T03:33:46.784Z,-3.44
2019-02-04T03:37:52.692Z,-3.52
2019-02-04T03:41:58.297Z,-3.57
2019-02-04T03:46:03.815Z,-3.64
2019-02-04T03:50:11.327Z,-3.68
2019-02-04T03:54:16.849Z,-3.53
2019-02-04T03:58:22.584Z,-3.65
2019-02-04T04:02:28.396Z,-3.55
2019-02-04T04:06:34.519Z,-3.57
2019-02-04T04:10:40.282Z,-3.67
2019-02-04T04:14:45.702Z,-3.62
2019-02-04T04:18:53.432Z,-3.59
2019-02-04T04:22:58.281Z,-3.68
2019-02-04T04:27:03.677Z,-3.43
2019-02-04T04:31:09.401Z,-3.60
2019-02-04T04:35:14.930Z,-3.47
2019-02-04T04:39:20.713Z,-3.58
2019-02-04T04:43:25.970Z,-3.52
2019-02-04T04:47:31.508Z,-3.28
2019-02-04T04:51:36.928Z,-2.98
2019-02-04T04:55:42.726Z,-3.20
2019-02-04T04:59:48.131Z,-3.21
2019-02-04T05:03:53.574Z,-3.05
2019-02-04T05:07:59.054Z,-3.26
2019-02-04T05:12:04.481Z,-3.06
2019-02-04T05:16:09.920Z,-3.18
2019-02-04T05:20:16.289Z,-3.32
2019-02-04T05:24:21.703Z,-3.10
2019-02-04T05:28:27.197Z,-3.21
2019-02-04T05:32:32.586Z,-3.36
2019-02-04T05:36:38.013Z,-3.40
2019-02-04T05:40:43.495Z,-3.16
2019-02-04T05:44:48.943Z,-3.08
2019-02-04T05:48:54.216Z,-3.18
2019-02-04T05:52:59.944Z,-3.09
2019-02-04T05:57:05.365Z,-3.18
2019-02-04T06:01:10.773Z,-2.90
2019-02-04T06:05:16.715Z,-2.96
2019-02-04T06:09:22.061Z,-3.00
2019-02-04T06:13:27.495Z,-3.01
2019-02-04T06:17:32.931Z,-2.53
2019-02-04T06:21:38.307Z,-2.91
2019-02-04T06:25:43.653Z,-2.84
2019-02-04T06:29:49.078Z,-2.98
2019-02-04T06:33:54.517Z,-2.74
2019-02-04T06:37:59.969Z,-2.81
2019-02-04T06:42:05.399Z,-2.81
2019-02-04T06:46:10.848Z,-2.62
2019-02-04T06:50:17.585Z,-2.54
2019-02-04T06:54:23.018Z,-2.47
2019-02-04T06:58:29.371Z,-2.46
2019-02-04T07:02:34.814Z,-2.52
2019-02-04T07:06:40.240Z,-2.53
2019-02-04T07:10:45.682Z,-2.46
2019-02-04T07:14:51.368Z,-2.50
2019-02-04T07:18:56.886Z,-2.15
2019-02-04T07:23:02.575Z,-2.35
2019-02-04T07:27:08.100Z,-2.22
2019-02-04T07:31:13.505Z,-2.05
2019-02-04T07:35:19.514Z,-2.12
2019-02-04T07:39:25.347Z,-2.16
2019-02-04T07:43:31.041Z,-2.14
2019-02-04T07:47:36.477Z,-2.06
2019-02-04T07:51:41.941Z,-2.06
2019-02-04T07:55:47.376Z,-1.88
2019-02-04T07:59:53.237Z,-1.67
2019-02-04T08:03:58.680Z,-1.78
2019-02-04T08:08:04.095Z,-1.75
2019-02-04T08:12:09.596Z,-1.63
2019-02-04T08:16:15.024Z,-1.50
2019-02-04T08:20:22.769Z,-1.34
2019-02-04T08:24:27.920Z,-1.42
2019-02-04T08:28:33.455Z,-1.33
2019-02-04T08:32:39.181Z,-1.21
2019-02-04T08:36:46.454Z,-1.17
2019-02-04T08:40:51.946Z,-1.02
2019-02-04T08:44:57.464Z,-0.97
2019-02-04T08:49:02.890Z,-0.72
2019-02-04T08:53:08.351Z,-0.68
2019-02-04T08:57:13.886Z,-0.69
2019-02-04T09:01:19.297Z,-0.61
2019-02-04T09:05:26.282Z,-0.59
2019-02-04T09:09:31.680Z,-0.46
2019-02-04T09:13:37.259Z,-0.36
2019-02-04T09:17:42.989Z,-0.22
2019-02-04T09:21:49.107Z,-0.22
2019-02-04T09:25:54.605Z,-0.20
2019-02-04T09:30:00.052Z,-0.20
2019-02-04T09:34:06.109Z,-0.07
2019-02-04T09:38:11.554Z,-0.01
2019-02-04T09:42:17.091Z,0.13
2019-02-04T09:46:22.445Z,0.10
2019-02-04T09:50:28.834Z,0.29
2019-02-04T09:54:34.463Z,0.39
2019-02-04T09:58:39.988Z,0.49
2019-02-04T10:02:46.997Z,0.61
2019-02-04T10:06:55.269Z,0.71
2019-02-04T10:10:59.701Z,0.83
2019-02-04T10:15:08.480Z,0.99
2019-02-04T10:19:13.992Z,1.01
2019-02-04T10:23:19.508Z,1.18
2019-02-04T10:27:24.967Z,1.26
2019-02-04T10:31:30.392Z,1.38
2019-02-04T10:35:35.809Z,1.48
2019-02-04T10:39:41.211Z,1.56
2019-02-04T10:43:46.649Z,1.63
2019-02-04T10:47:52.251Z,1.73
2019-02-04T10:51:57.689Z,1.81
2019-02-04T10:56:03.415Z,1.91
2019-02-04T11:00:11.982Z,1.94
2019-02-04T11:04:17.315Z,2.03
2019-02-04T11:08:23.006Z,2.21
2019-02-04T11:12:28.503Z,2.29
2019-02-04T11:16:33.909Z,2.39
2019-02-04T11:20:39.312Z,2.59
2019-02-04T11:24:44.817Z,2.77
2019-02-04T11:28:50.185Z,2.97
2019-02-04T11:32:55.577Z,3.14
2019-02-04T11:37:01.054Z,3.33
2019-02-04T11:41:06.706Z,3.43
2019-02-04T11:45:12.448Z,3.36
2019-02-04T11:49:17.898Z,3.51
2019-02-04T11:53:32.520Z,3.51
2019-02-04T11:57:30.477Z,3.54
2019-02-04T12:01:35.923Z,3.66
2019-02-04T12:05:41.408Z,4.09
2019-02-04T12:09:46.824Z,4.41
2019-02-04T12:13:52.195Z,4.66
2019-02-04T12:17:57.599Z,4.69
2019-02-04T12:22:03.019Z,4.81
2019-02-04T12:26:08.708Z,5.08
2019-02-04T12:30:20.682Z,4.82
2019-02-04T12:34:26.070Z,4.77
2019-02-04T12:38:31.505Z,4.93
2019-02-04T12:42:36.889Z,4.99
2019-02-04T12:46:42.698Z,5.07
2019-02-04T12:50:48.099Z,4.98
2019-02-04T12:54:53.510Z,4.93
2019-02-04T12:58:59.195Z,5.05
2019-02-04T13:03:05.107Z,4.98
2019-02-04T13:07:10.648Z,5.04
2019-02-04T13:11:16.040Z,5.02
2019-02-04T13:15:22.295Z,4.80
2019-02-04T13:19:27.615Z,4.86
2019-02-04T13:23:33.045Z,4.85
2019-02-04T13:27:38.460Z,4.66
2019-02-04T13:31:43.887Z,4.62
2019-02-04T13:35:49.392Z,4.67
2019-02-04T13:39:54.837Z,4.61
2019-02-04T13:44:00.172Z,4.55
2019-02-04T13:48:08.401Z,4.43
2019-02-04T13:52:15.257Z,4.41
2019-02-04T13:56:20.328Z,4.34
2019-02-04T14:00:27.428Z,4.39
2019-02-04T14:04:33.176Z,4.31
2019-02-04T14:08:38.861Z,4.27
2019-02-04T14:12:45.576Z,4.31
2019-02-04T14:16:51.465Z,4.26
2019-02-04T14:20:56.878Z,4.19
2019-02-04T14:25:02.317Z,4.29
2019-02-04T14:29:07.706Z,4.13
2019-02-04T14:33:13.120Z,4.14
2019-02-04T14:37:18.607Z,4.07
2019-02-04T14:41:24.059Z,4.06
2019-02-04T14:46:51.553Z,3.96
2019-02-04T14:51:55.003Z,3.99
2019-02-04T14:56:44.905Z,3.85
2019-02-04T15:01:49.246Z,3.84
2019-02-04T15:06:13.621Z,3.82
2019-02-04T15:10:56.378Z,3.78
2019-02-04T15:15:38.470Z,3.71
2019-02-04T15:20:54.858Z,3.70
2019-02-04T15:25:31.189Z,3.65
2019-02-04T15:30:06.305Z,3.66
2019-02-04T15:35:04.119Z,3.63
2019-02-04T15:39:41.780Z,3.65
2019-02-04T15:44:37.111Z,3.60
2019-02-04T15:49:34.395Z,3.56
2019-02-04T15:53:39.741Z,3.48
2019-02-04T15:57:45.770Z,3.50
2019-02-04T16:01:51.198Z,3.54
2019-02-04T16:05:56.604Z,3.42
2019-02-04T16:10:01.959Z,3.44
2019-02-04T16:14:07.416Z,3.37
2019-02-04T16:18:12.918Z,3.45
2019-02-04T16:22:19.210Z,3.37
2019-02-04T16:26:24.567Z,3.50
2019-02-04T16:30:30.008Z,3.45
2019-02-04T16:34:35.351Z,3.39
2019-02-04T16:38:41.027Z,3.45
2019-02-04T16:42:46.469Z,3.37
2019-02-04T16:46:54.583Z,3.25
2019-02-04T16:51:10.837Z,3.04
2019-02-04T16:55:06.874Z,2.99
2019-02-04T16:59:12.369Z,3.01
2019-02-04T17:03:18.862Z,2.94
2019-02-04T17:07:24.343Z,2.99
2019-02-04T17:11:29.753Z,3.06
2019-02-04T17:15:35.228Z,3.00
2019-02-04T17:19:40.941Z,3.07
2019-02-04T17:23:46.406Z,3.04
2019-02-04T17:27:51.741Z,3.11
2019-02-04T17:32:00.348Z,3.12
2019-02-04T17:36:04.768Z,3.04
2019-02-04T17:40:15.209Z,3.05
2019-02-04T17:44:20.559Z,3.07
2019-02-04T17:48:25.974Z,3.16
2019-02-04T17:52:31.369Z,3.16
2019-02-04T17:56:36.822Z,3.20
2019-02-04T18:00:48.581Z,3.07
2019-02-04T18:04:54.284Z,3.03
2019-02-04T18:08:59.665Z,3.04
2019-02-04T18:13:05.221Z,3.03
2019-02-04T18:17:11.203Z,3.00
2019-02-04T18:21:17.087Z,2.98
2019-02-04T18:25:22.571Z,3.09
2019-02-04T18:29:28.026Z,2.97
2019-02-04T18:33:33.939Z,3.02
2019-02-04T18:37:39.467Z,2.97
2019-02-04T18:41:44.888Z,2.93
2019-02-04T18:45:50.589Z,2.92
2019-02-04T18:49:56.352Z,2.92
2019-02-04T18:54:02.183Z,2.91
2019-02-04T18:58:07.624Z,2.87
2019-02-04T19:02:13.798Z,2.87
2019-02-04T19:06:19.257Z,2.87
2019-02-04T19:10:25.092Z,2.85
2019-02-04T19:14:30.805Z,2.88
2019-02-04T19:18:36.581Z,2.82
2019-02-04T19:22:42.027Z,2.80
2019-02-04T19:26:47.399Z,2.73
2019-02-04T19:31:24.714Z,2.70
2019-02-04T19:35:30.131Z,2.71
2019-02-04T19:39:35.896Z,2.72
2019-02-04T19:43:41.682Z,2.68
2019-02-04T19:47:47.200Z,2.66
2019-02-04T19:51:55.196Z,2.69
2019-02-04T19:56:00.318Z,2.74
2019-02-04T20:00:10.826Z,2.66
2019-02-04T20:04:16.520Z,2.65
2019-02-04T20:08:21.931Z,2.70
2019-02-04T20:12:27.800Z,2.82
2019-02-04T20:16:33.212Z,2.71
2019-02-04T20:20:38.693Z,2.83
2019-02-04T20:24:47.362Z,2.88
2019-02-04T20:28:52.921Z,2.88
2019-02-04T20:32:58.306Z,2.78
2019-02-04T20:37:03.746Z,2.83
2019-02-04T20:41:09.883Z,2.84
2019-02-04T20:45:16.082Z,2.79
2019-02-04T20:49:21.551Z,2.83
2019-02-04T20:53:26.921Z,2.85
2019-02-04T20:57:32.389Z,2.81
2019-02-04T21:01:37.829Z,2.82
2019-02-04T21:05:43.304Z,2.84
2019-02-04T21:09:48.672Z,2.82
2019-02-04T21:13:54.094Z,2.78
2019-02-04T21:17:59.925Z,2.77
2019-02-04T21:22:05.759Z,2.70
2019-02-04T21:26:11.637Z,2.59
2019-02-04T21:30:23.910Z,2.66
2019-02-04T21:34:29.237Z,2.64
2019-02-04T21:38:34.579Z,2.49
2019-02-04T21:42:40.394Z,2.44
2019-02-04T21:46:45.794Z,2.39
2019-02-04T21:50:51.159Z,2.41
2019-02-04T21:55:07.714Z,2.40
2019-02-04T21:59:04.111Z,2.30
2019-02-04T22:03:09.615Z,2.31
2019-02-04T22:07:15.137Z,2.23
2019-02-04T22:11:20.504Z,2.17
2019-02-04T22:15:26.037Z,2.09
2019-02-04T22:19:31.401Z,2.07
2019-02-04T22:23:36.771Z,1.99
2019-02-04T22:27:42.436Z,1.92
2019-02-04T22:31:47.852Z,1.84
2019-02-04T22:35:53.797Z,1.82
2019-02-04T22:39:59.151Z,1.75
2019-02-04T22:44:04.957Z,1.72
2019-02-04T22:48:10.413Z,1.67
2019-02-04T22:52:16.280Z,1.63
2019-02-04T22:56:22.089Z,1.55
2019-02-04T23:00:58.040Z,1.55
2019-02-04T23:05:03.517Z,1.56
2019-02-04T23:09:09.963Z,1.52
2019-02-04T23:13:15.365Z,1.44
2019-02-04T23:17:20.863Z,1.42
2019-02-04T23:21:26.277Z,1.37
2019-02-04T23:25:42.706Z,1.42
2019-02-04T23:29:39.230Z,1.41
2019-02-04T23:33:44.654Z,1.43
2019-02-04T23:37:50.057Z,1.42
2019-02-04T23:41:58.231Z,1.42
2019-02-04T23:46:02.624Z,1.42
2019-02-04T23:50:09.007Z,1.43
2019-02-04T23:54:14.486Z,1.45
2019-02-04T23:58:20.703Z,1.44
